Time;durP1;ratioP1;P1;durP2;ratioP2;P2;SDS_P1;SDS_P2;PMS_P1;PMS_P2;Temp;Humidity;BMP_temperature;BMP_pressure;BME280_temperature;BME280_humidity;BME280_pressure;Samples;Min_cycle;Max_cycle;Signal;HPM_P1;HPM_P2
2022/10/05 00:01:30;;;;;;;;;;;7.90;99.90;;;;;;4991583;28;19933;-72
2022/10/05 00:04:14;;;;;;;;;;;8.00;99.90;;;;;;5018459;28;19925;-73
2022/10/05 00:06:56;;;;;;;;;;;8.00;99.90;;;;;;5028085;28;19929;-72
2022/10/05 00:09:29;;;;;;;;;;;7.90;99.90;;;;;;5019482;28;19925;-72
2022/10/05 00:12:15;;;;;;;;;;;7.90;99.90;;;;;;5018707;28;20777;-72
2022/10/05 00:14:47;;;;;;;;;;;7.90;99.90;;;;;;5034905;28;19929;-73
2022/10/05 00:17:20;;;;;;;;;;;7.80;99.90;;;;;;5017253;28;20288;-72
2022/10/05 00:19:52;;;;;;;;;;;7.80;99.90;;;;;;5034547;28;19929;-72
2022/10/05 00:22:31;;;;;;;;;;;7.70;99.90;;;;;;5017423;28;19925;-72
2022/10/05 00:25:09;;;;;;;;;;;7.70;99.90;;;;;;5012939;28;20355;-72
2022/10/05 00:27:42;;;;;;;;;;;7.70;99.90;;;;;;5020769;28;19930;-72
2022/10/05 00:30:15;;;;;;;;;;;7.70;99.90;;;;;;4997685;28;19926;-72
2022/10/05 00:32:47;;;;;;;;;;;7.70;99.90;;;;;;5018113;28;19926;-73
2022/10/05 00:35:21;;;;;;;;;;;7.70;99.90;;;;;;5000482;28;19929;-72
2022/10/05 00:37:54;;;;;;;;;;;7.60;99.90;;;;;;5028635;28;19925;-73
2022/10/05 00:40:25;;;;;;;;;;;7.60;99.90;;;;;;5011547;28;19925;-72
2022/10/05 00:43:04;;;;;;;;;;;7.70;99.90;;;;;;5002900;28;19925;-72
2022/10/05 00:45:47;;;;;;;;;;;7.60;99.90;;;;;;5004932;28;19929;-72
2022/10/05 00:48:37;;;;;;;;;;;7.60;99.90;;;;;;5004015;28;19926;-72
2022/10/05 00:51:15;;;;;;;;;;;7.40;99.90;;;;;;5006694;28;19987;-73
2022/10/05 00:54:10;;;;;;;;;;;7.30;99.90;;;;;;5005474;28;19976;-72
2022/10/05 00:57:01;;;;;;;;;;;7.30;99.90;;;;;;4990907;28;20686;-72
2022/10/05 00:59:47;;;;;;;;;;;7.20;99.90;;;;;;5024397;28;20350;-72
2022/10/05 01:02:17;;;;;;;;;;;7.20;99.90;;;;;;5022313;28;20033;-73
2022/10/05 01:04:51;;;;;;;;;;;7.20;99.90;;;;;;4996822;28;20340;-72
2022/10/05 01:07:42;;;;;;;;;;;7.20;99.90;;;;;;4999350;28;19991;-73
2022/10/05 01:10:29;;;;;;;;;;;7.30;99.90;;;;;;5004939;28;19929;-72
2022/10/05 01:13:14;;;;;;;;;;;7.30;99.90;;;;;;4983915;28;19926;-72
2022/10/05 01:15:45;;;;;;;;;;;7.30;99.90;;;;;;5014591;28;19933;-73
2022/10/05 01:18:20;;;;;;;;;;;7.30;99.90;;;;;;4996374;28;19929;-73
2022/10/05 01:20:52;;;;;;;;;;;7.30;99.90;;;;;;5020046;28;19929;-72
2022/10/05 01:23:23;;;;;;;;;;;7.30;99.90;;;;;;5017086;28;19983;-72
2022/10/05 01:26:14;;;;;;;;;;;7.30;99.90;;;;;;5001704;28;19925;-72
2022/10/05 01:28:49;;;;;;;;;;;7.20;99.90;;;;;;5003585;28;19949;-72
2022/10/05 01:31:20;;;;;;;;;;;7.20;99.90;;;;;;5017435;28;19929;-72
2022/10/05 01:34:11;;;;;;;;;;;7.20;99.90;;;;;;5019031;28;19932;-72
2022/10/05 01:36:53;;;;;;;;;;;7.20;99.90;;;;;;4999555;28;19933;-72
2022/10/05 01:39:31;;;;;;;;;;;7.20;99.90;;;;;;5026299;28;19929;-72
2022/10/05 01:42:15;;;;;;;;;;;7.20;99.90;;;;;;5001563;28;19976;-72
2022/10/05 01:44:47;;;;;;;;;;;7.10;99.90;;;;;;4987527;28;19926;-72
2022/10/05 01:47:32;;;;;;;;;;;7.10;99.90;;;;;;5018742;28;19925;-72
2022/10/05 01:50:06;;;;;;;;;;;7.10;99.90;;;;;;5022626;28;19929;-72
2022/10/05 01:52:46;;;;;;;;;;;7.20;99.90;;;;;;5007059;28;19925;-72
2022/10/05 01:55:38;;;;;;;;;;;7.20;99.90;;;;;;5019360;28;20299;-72
2022/10/05 01:58:30;;;;;;;;;;;7.40;99.90;;;;;;5001150;28;19929;-72
2022/10/05 02:01:05;;;;;;;;;;;7.50;99.90;;;;;;5022973;28;19925;-72
2022/10/05 02:03:41;;;;;;;;;;;7.60;99.90;;;;;;5023048;28;19956;-72
2022/10/05 02:06:16;;;;;;;;;;;7.80;99.90;;;;;;5001045;28;19980;-72
2022/10/05 02:09:01;;;;;;;;;;;7.80;99.90;;;;;;4996626;28;20406;-72
2022/10/05 02:11:33;;;;;;;;;;;7.70;99.90;;;;;;5003640;28;19929;-73
2022/10/05 02:14:10;;;;;;;;;;;7.60;99.90;;;;;;5021167;28;19947;-72
2022/10/05 02:16:43;;;;;;;;;;;7.60;99.90;;;;;;5018674;28;20000;-72
2022/10/05 02:19:14;;;;;;;;;;;7.60;99.90;;;;;;5017280;28;19934;-72
2022/10/05 02:21:49;;;;;;;;;;;7.50;99.90;;;;;;5012050;28;19956;-72
2022/10/05 02:24:25;;;;;;;;;;;7.40;99.90;;;;;;5005044;28;19925;-72
2022/10/05 02:26:57;;;;;;;;;;;7.30;99.90;;;;;;5018346;28;19926;-72
2022/10/05 02:29:31;;;;;;;;;;;7.20;99.90;;;;;;5000718;28;20399;-72
2022/10/05 02:32:05;;;;;;;;;;;7.20;99.90;;;;;;5019475;28;20410;-72
2022/10/05 02:34:38;;;;;;;;;;;7.20;99.90;;;;;;5004554;28;20028;-72
2022/10/05 02:37:29;;;;;;;;;;;7.20;99.90;;;;;;4996426;28;20372;-72
2022/10/05 02:40:13;;;;;;;;;;;7.10;99.90;;;;;;5016286;28;19925;-72
2022/10/05 02:42:47;;;;;;;;;;;7.10;99.90;;;;;;5008330;28;19944;-72
2022/10/05 02:45:22;;;;;;;;;;;7.00;99.90;;;;;;5028568;28;19929;-72
2022/10/05 02:47:57;;;;;;;;;;;7.00;99.90;;;;;;5014979;28;19933;-72
2022/10/05 02:50:40;;;;;;;;;;;7.00;99.90;;;;;;5021331;28;19929;-72
2022/10/05 02:53:15;;;;;;;;;;;6.90;99.90;;;;;;5012175;28;20028;-72
2022/10/05 02:55:49;;;;;;;;;;;6.90;99.90;;;;;;5013362;28;19948;-72
2022/10/05 02:58:26;;;;;;;;;;;6.80;99.90;;;;;;5008124;28;19926;-72
2022/10/05 03:01:02;;;;;;;;;;;6.80;99.90;;;;;;5017207;28;19931;-72
2022/10/05 03:03:36;;;;;;;;;;;6.70;99.90;;;;;;4988037;28;19925;-72
2022/10/05 03:06:17;;;;;;;;;;;6.70;99.90;;;;;;5013705;28;20403;-74
2022/10/05 03:09:03;;;;;;;;;;;6.70;99.90;;;;;;5008424;28;19948;-72
2022/10/05 03:11:45;;;;;;;;;;;6.70;99.90;;;;;;5034006;28;19929;-72
2022/10/05 03:14:21;;;;;;;;;;;6.70;99.90;;;;;;5025933;28;19925;-72
2022/10/05 03:17:03;;;;;;;;;;;6.70;99.90;;;;;;4993975;28;19929;-72
2022/10/05 03:19:38;;;;;;;;;;;7.10;99.90;;;;;;5013218;28;19930;-72
2022/10/05 03:22:29;;;;;;;;;;;7.50;99.90;;;;;;5014171;28;20012;-72
2022/10/05 03:25:15;;;;;;;;;;;7.70;99.90;;;;;;5015780;28;19933;-72
2022/10/05 03:27:59;;;;;;;;;;;7.80;99.90;;;;;;5007175;28;19926;-72
2022/10/05 03:30:49;;;;;;;;;;;7.60;99.90;;;;;;5029406;28;19956;-72
2022/10/05 03:33:26;;;;;;;;;;;7.50;99.90;;;;;;5046840;28;19929;-72
2022/10/05 03:36:16;;;;;;;;;;;7.30;99.90;;;;;;5035171;28;19929;-72
2022/10/05 03:39:10;;;;;;;;;;;7.20;99.90;;;;;;5021641;28;19925;-72
2022/10/05 03:41:46;;;;;;;;;;;7.10;99.90;;;;;;4993644;28;20334;-72
2022/10/05 03:44:17;;;;;;;;;;;7.00;99.90;;;;;;5009663;28;20291;-72
2022/10/05 03:47:07;;;;;;;;;;;6.90;99.90;;;;;;5020891;28;19932;-72
2022/10/05 03:49:55;;;;;;;;;;;6.90;99.90;;;;;;5000554;28;19931;-72
2022/10/05 03:52:34;;;;;;;;;;;6.80;99.90;;;;;;5026223;28;19929;-72
2022/10/05 03:55:29;;;;;;;;;;;6.80;99.90;;;;;;5016084;28;19976;-72
2022/10/05 03:58:08;;;;;;;;;;;6.70;99.90;;;;;;5002410;28;19953;-72
2022/10/05 04:00:42;;;;;;;;;;;6.70;99.90;;;;;;5009276;28;19936;-75
2022/10/05 04:03:24;;;;;;;;;;;6.60;99.90;;;;;;5021192;28;20268;-71
2022/10/05 04:06:15;;;;;;;;;;;6.60;99.90;;;;;;5008864;28;19971;-72
2022/10/05 04:08:53;;;;;;;;;;;6.60;99.90;;;;;;5015195;28;20350;-72
2022/10/05 04:11:30;;;;;;;;;;;6.70;99.90;;;;;;4997696;28;19937;-72
2022/10/05 04:14:02;;;;;;;;;;;6.70;99.90;;;;;;5006427;28;19976;-72
2022/10/05 04:16:38;;;;;;;;;;;6.70;99.90;;;;;;5022080;28;19925;-72
2022/10/05 04:19:15;;;;;;;;;;;6.60;99.90;;;;;;5028090;28;19968;-76
2022/10/05 04:21:51;;;;;;;;;;;6.60;99.90;;;;;;5001609;28;19926;-72
2022/10/05 04:24:26;;;;;;;;;;;6.50;99.90;;;;;;5007587;28;19929;-72
2022/10/05 04:26:59;;;;;;;;;;;6.50;99.90;;;;;;5008309;28;20028;-72
2022/10/05 04:29:40;;;;;;;;;;;6.50;99.90;;;;;;5015129;28;19925;-72
2022/10/05 04:32:14;;;;;;;;;;;6.40;99.90;;;;;;5009752;28;19926;-73
2022/10/05 04:34:55;;;;;;;;;;;6.50;99.90;;;;;;4995916;28;20347;-71
2022/10/05 04:37:40;;;;;;;;;;;6.50;99.90;;;;;;5000319;28;19925;-73
2022/10/05 04:40:29;;;;;;;;;;;6.50;99.90;;;;;;5013030;28;19986;-72
2022/10/05 04:43:07;;;;;;;;;;;6.40;99.90;;;;;;5020383;28;19929;-72
2022/10/05 04:45:42;;;;;;;;;;;6.40;99.90;;;;;;5011839;28;20020;-73
2022/10/05 04:48:22;;;;;;;;;;;6.40;99.90;;;;;;5009886;28;19929;-73
2022/10/05 04:51:06;;;;;;;;;;;6.40;99.90;;;;;;5010058;28;20527;-73
2022/10/05 04:53:38;;;;;;;;;;;6.40;99.90;;;;;;5011911;28;20009;-73
2022/10/05 04:56:14;;;;;;;;;;;6.40;99.90;;;;;;5000364;28;19925;-73
2022/10/05 04:58:55;;;;;;;;;;;6.30;99.90;;;;;;5004421;28;19932;-73
2022/10/05 05:01:36;;;;;;;;;;;6.30;99.90;;;;;;5013134;28;20273;-73
2022/10/05 05:04:21;;;;;;;;;;;6.30;99.90;;;;;;5005202;28;19926;-72
2022/10/05 05:06:53;;;;;;;;;;;6.30;99.90;;;;;;4997699;28;20359;-72
2022/10/05 05:09:43;;;;;;;;;;;6.30;99.90;;;;;;5000659;28;19991;-72
2022/10/05 05:12:23;;;;;;;;;;;6.20;99.90;;;;;;5014738;28;20306;-73
2022/10/05 05:15:14;;;;;;;;;;;6.20;99.90;;;;;;5016750;28;20020;-72
2022/10/05 05:18:01;;;;;;;;;;;6.20;99.90;;;;;;5001374;28;19929;-72
2022/10/05 05:20:32;;;;;;;;;;;6.20;99.90;;;;;;4996370;28;19937;-73
2022/10/05 05:23:21;;;;;;;;;;;6.20;99.90;;;;;;5011081;28;19929;-73
2022/10/05 05:26:02;;;;;;;;;;;6.10;99.90;;;;;;5005366;28;19925;-73
2022/10/05 05:28:39;;;;;;;;;;;6.10;99.90;;;;;;5012520;28;20446;-73
2022/10/05 05:31:14;;;;;;;;;;;6.10;99.90;;;;;;5003021;28;19949;-72
2022/10/05 05:33:49;;;;;;;;;;;6.10;99.90;;;;;;5009031;28;19991;-72
2022/10/05 05:36:38;;;;;;;;;;;6.20;99.90;;;;;;5007875;28;19929;-72
2022/10/05 05:39:22;;;;;;;;;;;6.20;99.90;;;;;;5021233;28;19926;-73
2022/10/05 05:42:00;;;;;;;;;;;6.20;99.90;;;;;;5011453;28;20298;-73
2022/10/05 05:44:34;;;;;;;;;;;6.30;99.90;;;;;;5018235;28;19925;-72
2022/10/05 05:47:21;;;;;;;;;;;6.30;99.90;;;;;;5010768;28;20340;-73
2022/10/05 05:49:59;;;;;;;;;;;6.30;99.90;;;;;;5010815;28;19938;-73
2022/10/05 05:52:34;;;;;;;;;;;6.40;99.90;;;;;;5011104;28;20340;-72
2022/10/05 05:55:06;;;;;;;;;;;6.40;99.90;;;;;;5009294;28;20392;-73
2022/10/05 05:57:42;;;;;;;;;;;6.40;99.90;;;;;;5016286;28;19929;-72
2022/10/05 06:00:13;;;;;;;;;;;6.40;99.90;;;;;;5011739;28;19936;-73
2022/10/05 06:03:01;;;;;;;;;;;6.40;99.90;;;;;;5021824;28;20051;-72
2022/10/05 06:05:36;;;;;;;;;;;6.40;99.90;;;;;;5019565;28;19925;-73
2022/10/05 06:08:28;;;;;;;;;;;6.40;99.90;;;;;;5007667;28;19925;-73
2022/10/05 06:11:17;;;;;;;;;;;6.40;99.90;;;;;;4999068;28;20015;-73
2022/10/05 06:13:50;;;;;;;;;;;6.40;99.90;;;;;;4995005;28;19941;-73
2022/10/05 06:16:35;;;;;;;;;;;6.40;99.90;;;;;;5007806;28;19980;-73
2022/10/05 06:19:10;;;;;;;;;;;6.40;99.90;;;;;;5030795;28;19925;-73
2022/10/05 06:21:46;;;;;;;;;;;6.50;99.90;;;;;;5010309;28;19953;-73
2022/10/05 06:24:28;;;;;;;;;;;6.50;99.90;;;;;;4995116;28;19925;-73
2022/10/05 06:27:15;;;;;;;;;;;6.50;99.90;;;;;;5018044;28;19932;-73
2022/10/05 06:30:06;;;;;;;;;;;6.60;99.90;;;;;;4995498;28;19926;-73
2022/10/05 06:32:40;;;;;;;;;;;6.60;99.90;;;;;;4998387;28;20129;-73
2022/10/05 06:35:12;;;;;;;;;;;6.70;99.90;;;;;;4995450;28;20277;-73
2022/10/05 06:38:10;;;;;;;;;;;6.70;99.90;;;;;;5013812;28;19964;-72
2022/10/05 06:40:50;;;;;;;;;;;6.70;99.90;;;;;;4982528;28;19929;-72
2022/10/05 06:43:41;;;;;;;;;;;6.80;99.90;;;;;;5030237;28;19926;-72
2022/10/05 06:46:47;;;;;;;;;;;6.80;99.90;;;;;;5033004;28;19956;-72
2022/10/05 06:49:54;;;;;;;;;;;6.90;99.90;;;;;;5019412;28;19931;-71
2022/10/05 06:52:43;;;;;;;;;;;7.00;99.90;;;;;;5007404;28;19933;-72
2022/10/05 06:55:14;;;;;;;;;;;7.00;99.90;;;;;;4996659;28;19992;-72
2022/10/05 06:57:55;;;;;;;;;;;7.00;99.90;;;;;;4999149;28;20269;-72
2022/10/05 07:00:36;;;;;;;;;;;7.10;99.90;;;;;;5024066;28;19925;-72
2022/10/05 07:03:27;;;;;;;;;;;7.20;99.90;;;;;;5013751;28;19987;-72
2022/10/05 07:06:04;;;;;;;;;;;7.20;99.90;;;;;;5008500;28;19929;-72
2022/10/05 07:09:10;;;;;;;;;;;7.30;99.90;;;;;;5006450;28;19925;-72
2022/10/05 07:11:45;;;;;;;;;;;7.40;99.90;;;;;;4987932;28;19984;-72
2022/10/05 07:14:29;;;;;;;;;;;7.50;99.90;;;;;;5006867;28;19929;-72
2022/10/05 07:17:16;;;;;;;;;;;7.70;99.90;;;;;;5023788;28;19936;-72
2022/10/05 07:20:11;;;;;;;;;;;7.90;99.90;;;;;;5024156;28;19926;-72
2022/10/05 07:22:43;;;;;;;;;;;8.00;99.90;;;;;;4994184;28;19957;-72
2022/10/05 07:25:20;;;;;;;;;;;8.10;99.90;;;;;;5009241;28;19926;-72
2022/10/05 07:27:55;;;;;;;;;;;8.20;99.90;;;;;;5004137;28;19926;-72
2022/10/05 07:30:27;;;;;;;;;;;8.20;99.90;;;;;;5008747;28;19929;-72
2022/10/05 07:33:10;;;;;;;;;;;8.30;99.90;;;;;;5009579;28;19968;-72
2022/10/05 07:38:51;;;;;;;;;;;8.50;99.90;;;;;;5013355;28;20412;-73
2022/10/05 07:41:44;;;;;;;;;;;8.60;99.90;;;;;;5028110;28;19932;-73
2022/10/05 07:44:22;;;;;;;;;;;8.60;99.90;;;;;;5012020;28;19934;-73
2022/10/05 07:46:57;;;;;;;;;;;8.70;99.90;;;;;;5015242;28;19933;-73
2022/10/05 07:49:40;;;;;;;;;;;8.80;99.90;;;;;;5014235;28;20483;-73
2022/10/05 07:52:15;;;;;;;;;;;8.90;99.90;;;;;;4997836;28;19932;-72
2022/10/05 07:54:55;;;;;;;;;;;9.00;99.90;;;;;;5010789;28;19929;-73
2022/10/05 07:57:29;;;;;;;;;;;9.10;99.90;;;;;;5012977;28;19933;-72
2022/10/05 08:00:09;;;;;;;;;;;9.20;99.90;;;;;;5029449;28;19926;-72
2022/10/05 08:02:57;;;;;;;;;;;9.30;99.90;;;;;;4991489;28;19933;-72
2022/10/05 08:05:32;;;;;;;;;;;9.50;99.90;;;;;;5015011;28;19929;-72
2022/10/05 08:08:10;;;;;;;;;;;9.60;99.90;;;;;;5018352;28;19925;-73
2022/10/05 08:10:55;;;;;;;;;;;9.70;99.90;;;;;;5018941;28;19929;-72
2022/10/05 08:13:27;;;;;;;;;;;9.80;99.90;;;;;;4998577;28;19983;-72
2022/10/05 08:16:03;;;;;;;;;;;9.90;99.90;;;;;;5024484;28;20467;-72
2022/10/05 08:18:40;;;;;;;;;;;10.10;99.90;;;;;;5023697;28;19925;-72
2022/10/05 08:21:14;;;;;;;;;;;10.20;99.90;;;;;;5026714;28;19925;-73
2022/10/05 08:23:53;;;;;;;;;;;10.40;99.90;;;;;;5028428;28;19928;-72
2022/10/05 08:26:37;;;;;;;;;;;10.50;99.90;;;;;;5025118;28;19926;-73
2022/10/05 08:29:12;;;;;;;;;;;10.70;99.90;;;;;;5025123;28;19929;-72
2022/10/05 08:31:59;;;;;;;;;;;10.80;99.90;;;;;;5011387;28;19925;-72
2022/10/05 08:34:33;;;;;;;;;;;11.00;99.90;;;;;;5023646;28;19925;-72
2022/10/05 08:37:18;;;;;;;;;;;11.10;99.90;;;;;;5025200;28;19968;-73
2022/10/05 08:39:52;;;;;;;;;;;11.30;99.90;;;;;;5024693;28;19980;-73
2022/10/05 08:42:38;;;;;;;;;;;11.50;99.90;;;;;;5021464;28;19929;-73
2022/10/05 08:45:19;;;;;;;;;;;11.60;99.90;;;;;;5028487;28;19925;-73
2022/10/05 08:48:10;;;;;;;;;;;11.80;99.90;;;;;;5007833;28;20466;-72
2022/10/05 08:50:51;;;;;;;;;;;11.90;99.90;;;;;;5010887;28;19929;-72
2022/10/05 08:53:31;;;;;;;;;;;12.10;99.90;;;;;;5019904;28;19980;-73
2022/10/05 08:56:02;;;;;;;;;;;12.20;99.90;;;;;;5013865;28;19929;-73
2022/10/05 08:58:42;;;;;;;;;;;12.40;99.90;;;;;;5009587;28;20004;-73
2022/10/05 09:01:20;;;;;;;;;;;12.50;99.90;;;;;;5029002;28;19929;-73
2022/10/05 09:04:10;;;;;;;;;;;12.70;99.90;;;;;;5012731;28;19930;-73
2022/10/05 09:06:57;;;;;;;;;;;12.90;99.90;;;;;;5008932;28;19929;-72
2022/10/05 09:09:47;;;;;;;;;;;13.10;99.90;;;;;;5014346;28;19971;-73
2022/10/05 09:12:39;;;;;;;;;;;13.30;99.90;;;;;;5013448;28;20403;-72
2022/10/05 09:15:23;;;;;;;;;;;13.60;99.90;;;;;;5022363;28;19980;-73
2022/10/05 09:18:10;;;;;;;;;;;13.80;99.90;;;;;;5023239;28;20406;-73
2022/10/05 09:20:36;;;;;;;;;;;14.00;99.90;;;;;;4985818;28;19995;-72
2022/10/05 09:23:14;;;;;;;;;;;14.20;99.90;;;;;;5011009;28;19984;-73
2022/10/05 09:26:05;;;;;;;;;;;14.30;99.90;;;;;;5002047;28;19980;-72
2022/10/05 09:28:46;;;;;;;;;;;14.50;99.90;;;;;;5027195;28;19933;-72
2022/10/05 09:31:18;;;;;;;;;;;14.70;99.90;;;;;;5011385;28;20015;-72
2022/10/05 09:34:00;;;;;;;;;;;14.80;99.90;;;;;;5026006;28;19933;-72
2022/10/05 09:36:47;;;;;;;;;;;15.00;99.90;;;;;;5022858;28;19980;-73
2022/10/05 09:39:21;;;;;;;;;;;15.20;99.90;;;;;;5027189;28;19996;-73
2022/10/05 09:41:50;;;;;;;;;;;15.40;99.90;;;;;;4991524;28;20289;-72
2022/10/05 09:44:49;;;;;;;;;;;15.70;99.90;;;;;;5027637;28;20339;-72
2022/10/05 09:47:36;;;;;;;;;;;15.90;99.90;;;;;;5024763;28;19925;-72
2022/10/05 09:50:26;;;;;;;;;;;16.00;99.90;;;;;;5020715;28;19933;-73
2022/10/05 09:53:00;;;;;;;;;;;16.20;99.90;;;;;;5008890;28;20418;-72
2022/10/05 09:55:39;;;;;;;;;;;16.40;99.90;;;;;;5025869;28;19979;-72
2022/10/05 09:58:30;;;;;;;;;;;16.60;99.90;;;;;;5013428;28;19925;-72
2022/10/05 10:01:11;;;;;;;;;;;16.70;99.90;;;;;;5026024;28;19925;-73
2022/10/05 10:03:52;;;;;;;;;;;16.90;99.90;;;;;;5015749;28;19984;-72
2022/10/05 10:06:39;;;;;;;;;;;16.90;99.90;;;;;;5020463;28;19926;-73
2022/10/05 10:09:34;;;;;;;;;;;17.00;99.90;;;;;;5025848;28;19981;-72
2022/10/05 10:12:06;;;;;;;;;;;17.20;99.90;;;;;;5011179;28;19983;-72
2022/10/05 10:14:56;;;;;;;;;;;17.30;99.90;;;;;;5029250;28;19980;-72
2022/10/05 10:17:28;;;;;;;;;;;17.40;99.90;;;;;;5022651;28;20046;-73
2022/10/05 10:20:10;;;;;;;;;;;17.50;99.90;;;;;;5023655;28;19976;-73
2022/10/05 10:22:43;;;;;;;;;;;17.50;99.90;;;;;;5020889;28;19929;-72
2022/10/05 10:25:21;;;;;;;;;;;17.60;99.90;;;;;;5021326;28;20307;-72
2022/10/05 10:27:55;;;;;;;;;;;17.60;99.90;;;;;;5006629;28;19940;-71
2022/10/05 10:30:31;;;;;;;;;;;17.70;99.90;;;;;;5024132;28;19929;-72
2022/10/05 10:33:03;;;;;;;;;;;17.70;99.90;;;;;;5015243;28;19925;-73
2022/10/05 10:35:35;;;;;;;;;;;17.80;99.90;;;;;;4990206;28;19977;-72
2022/10/05 10:38:19;;;;;;;;;;;17.90;99.90;;;;;;5022173;28;19986;-73
2022/10/05 10:41:09;;;;;;;;;;;17.90;99.90;;;;;;5015995;28;19925;-73
2022/10/05 10:43:50;;;;;;;;;;;18.00;99.90;;;;;;5012615;28;19944;-73
2022/10/05 10:46:39;;;;;;;;;;;18.10;99.90;;;;;;5026356;28;19945;-72
2022/10/05 10:49:14;;;;;;;;;;;18.20;99.90;;;;;;5015814;28;20027;-72
2022/10/05 10:51:58;;;;;;;;;;;18.30;99.90;;;;;;5019089;28;19930;-72
2022/10/05 10:54:32;;;;;;;;;;;18.40;99.90;;;;;;5021909;28;19925;-72
2022/10/05 10:57:22;;;;;;;;;;;18.50;99.90;;;;;;5020613;28;20335;-73
2022/10/05 11:00:10;;;;;;;;;;;18.50;99.90;;;;;;5005382;28;19925;-73
2022/10/05 11:03:00;;;;;;;;;;;18.60;99.90;;;;;;5007661;28;20445;-73
2022/10/05 11:05:39;;;;;;;;;;;18.70;99.90;;;;;;5026762;28;19932;-72
2022/10/05 11:08:17;;;;;;;;;;;18.80;99.90;;;;;;5026774;28;19972;-73
2022/10/05 11:11:04;;;;;;;;;;;18.90;99.90;;;;;;5029334;28;19940;-73
2022/10/05 11:13:42;;;;;;;;;;;18.90;99.90;;;;;;5027097;28;19980;-73
2022/10/05 11:16:26;;;;;;;;;;;19.10;99.90;;;;;;5023703;28;20363;-73
2022/10/05 11:19:15;;;;;;;;;;;19.30;99.90;;;;;;5022959;28;19930;-73
2022/10/05 11:21:50;;;;;;;;;;;19.30;99.90;;;;;;5027083;28;20327;-73
2022/10/05 11:24:33;;;;;;;;;;;19.50;99.90;;;;;;5028649;28;19925;-72
2022/10/05 11:27:16;;;;;;;;;;;19.60;99.90;;;;;;5022100;28;19929;-73
2022/10/05 11:30:03;;;;;;;;;;;19.60;99.90;;;;;;5011685;28;19930;-73
2022/10/05 11:32:34;;;;;;;;;;;19.60;99.90;;;;;;5007515;28;20392;-72
2022/10/05 11:35:35;;;;;;;;;;;19.80;99.90;;;;;;5025876;28;20507;-73
2022/10/05 11:38:14;;;;;;;;;;;19.80;99.90;;;;;;4953923;28;19937;-73
2022/10/05 11:40:58;;;;;;;;;;;19.90;99.90;;;;;;5019598;28;19926;-73
2022/10/05 11:43:31;;;;;;;;;;;19.90;99.90;;;;;;4998308;28;19951;-73
2022/10/05 11:46:15;;;;;;;;;;;20.00;99.90;;;;;;5022150;28;19929;-72
2022/10/05 11:49:05;;;;;;;;;;;20.10;99.90;;;;;;4996377;28;19980;-72
2022/10/05 11:51:37;;;;;;;;;;;20.20;99.90;;;;;;5008156;28;19972;-73
2022/10/05 11:54:16;;;;;;;;;;;20.30;99.90;;;;;;5016367;28;19980;-73
2022/10/05 11:56:50;;;;;;;;;;;20.40;99.90;;;;;;4999263;28;20715;-73
2022/10/05 11:59:33;;;;;;;;;;;20.50;99.90;;;;;;5000408;28;19933;-73
2022/10/05 12:02:04;;;;;;;;;;;20.60;99.90;;;;;;5025684;28;19956;-73
2022/10/05 12:04:54;;;;;;;;;;;20.60;99.90;;;;;;5030053;28;19936;-73
2022/10/05 12:07:33;;;;;;;;;;;20.70;99.90;;;;;;5010021;28;20038;-73
2022/10/05 12:10:19;;;;;;;;;;;20.90;99.90;;;;;;5028327;28;19925;-73
2022/10/05 12:13:09;;;;;;;;;;;21.00;99.90;;;;;;5022535;28;19995;-73
2022/10/05 12:15:49;;;;;;;;;;;21.10;99.90;;;;;;5027242;28;19926;-73
2022/10/05 12:18:43;;;;;;;;;;;21.10;99.90;;;;;;5023484;28;19933;-73
2022/10/05 12:21:21;;;;;;;;;;;21.10;99.90;;;;;;5025272;28;19978;-72
2022/10/05 12:24:11;;;;;;;;;;;21.10;99.90;;;;;;5023816;28;19925;-72
2022/10/05 12:26:48;;;;;;;;;;;21.10;99.90;;;;;;5027410;28;19925;-73
2022/10/05 12:29:37;;;;;;;;;;;21.10;99.90;;;;;;4999965;28;19932;-73
2022/10/05 12:32:11;;;;;;;;;;;21.20;99.90;;;;;;5015763;28;20339;-73
2022/10/05 12:34:57;;;;;;;;;;;21.20;99.90;;;;;;5024547;28;20021;-73
2022/10/05 12:37:50;;;;;;;;;;;21.40;99.90;;;;;;4998714;28;19929;-73
2022/10/05 12:40:26;;;;;;;;;;;21.30;99.90;;;;;;5027012;28;19929;-73
2022/10/05 12:43:03;;;;;;;;;;;21.40;99.90;;;;;;5002786;28;20455;-72
2022/10/05 12:45:45;;;;;;;;;;;21.50;99.90;;;;;;4992108;28;20388;-73
2022/10/05 12:48:35;;;;;;;;;;;21.50;99.90;;;;;;5024377;28;19980;-73
2022/10/05 12:51:19;;;;;;;;;;;21.60;99.90;;;;;;5008818;28;19949;-73
2022/10/05 12:53:50;;;;;;;;;;;21.70;99.90;;;;;;5012002;28;19929;-73
2022/10/05 12:56:31;;;;;;;;;;;21.70;99.90;;;;;;5024865;28;19979;-73
2022/10/05 12:59:03;;;;;;;;;;;21.70;99.90;;;;;;5017067;28;20339;-72
2022/10/05 13:01:47;;;;;;;;;;;21.90;99.90;;;;;;5020144;28;19932;-73
2022/10/05 13:04:42;;;;;;;;;;;21.90;99.90;;;;;;5015975;28;19930;-73
2022/10/05 13:07:33;;;;;;;;;;;22.00;99.90;;;;;;5024029;28;19975;-73
2022/10/05 13:10:23;;;;;;;;;;;22.00;99.90;;;;;;5013232;28;19933;-72
2022/10/05 13:12:53;;;;;;;;;;;22.00;99.90;;;;;;5031532;28;19929;-73
2022/10/05 13:15:24;;;;;;;;;;;22.00;99.90;;;;;;5030583;28;20396;-72
2022/10/05 13:17:59;;;;;;;;;;;22.00;99.90;;;;;;5022294;28;19947;-73
2022/10/05 13:20:51;;;;;;;;;;;22.00;99.90;;;;;;5004509;28;20298;-72
2022/10/05 13:23:26;;;;;;;;;;;22.00;99.90;;;;;;5026427;28;19983;-73
2022/10/05 13:26:05;;;;;;;;;;;22.00;99.90;;;;;;5027935;28;19941;-73
2022/10/05 13:29:00;;;;;;;;;;;22.00;99.90;;;;;;5029778;28;19992;-73
2022/10/05 13:31:33;;;;;;;;;;;22.00;99.90;;;;;;5005482;28;19984;-73
2022/10/05 13:34:02;;;;;;;;;;;22.00;99.90;;;;;;5027582;28;19933;-72
2022/10/05 13:36:35;;;;;;;;;;;22.00;99.90;;;;;;5007083;28;19937;-73
2022/10/05 13:39:16;;;;;;;;;;;22.10;99.90;;;;;;5021408;28;20426;-72
2022/10/05 13:41:58;;;;;;;;;;;22.10;99.90;;;;;;5015854;28;19929;-72
2022/10/05 13:44:39;;;;;;;;;;;22.10;99.90;;;;;;5005725;28;19932;-72
2022/10/05 13:47:10;;;;;;;;;;;22.20;99.90;;;;;;5017920;28;19997;-72
2022/10/05 13:49:52;;;;;;;;;;;22.10;99.90;;;;;;5007827;28;19948;-71
2022/10/05 13:52:45;;;;;;;;;;;22.00;99.90;;;;;;5018313;28;19932;-72
2022/10/05 13:55:40;;;;;;;;;;;22.00;99.90;;;;;;5008437;28;19979;-72
2022/10/05 13:58:31;;;;;;;;;;;22.10;99.90;;;;;;4981810;28;19997;-72
2022/10/05 14:01:15;;;;;;;;;;;22.10;99.90;;;;;;5014857;28;19925;-71
2022/10/05 14:04:12;;;;;;;;;;;22.10;99.90;;;;;;5013751;28;19925;-72
2022/10/05 14:06:45;;;;;;;;;;;22.10;99.90;;;;;;5005628;28;19926;-72
2022/10/05 14:09:13;;;;;;;;;;;22.10;99.90;;;;;;5008899;28;20443;-73
2022/10/05 14:11:49;;;;;;;;;;;22.10;99.90;;;;;;5012872;28;19980;-72
2022/10/05 14:14:27;;;;;;;;;;;22.00;99.90;;;;;;5024845;28;19932;-71
2022/10/05 14:16:59;;;;;;;;;;;21.90;99.90;;;;;;5014147;28;19925;-71
2022/10/05 14:19:32;;;;;;;;;;;21.90;99.90;;;;;;5023852;28;19925;-73
2022/10/05 14:22:15;;;;;;;;;;;21.90;99.90;;;;;;5011107;28;19988;-71
2022/10/05 14:24:47;;;;;;;;;;;22.00;99.90;;;;;;5013066;28;19933;-72
2022/10/05 14:27:18;;;;;;;;;;;22.00;99.90;;;;;;4995961;28;19934;-71
2022/10/05 14:29:59;;;;;;;;;;;22.00;99.90;;;;;;5013405;28;20455;-71
2022/10/05 14:32:32;;;;;;;;;;;22.00;99.90;;;;;;5023494;28;20818;-72
2022/10/05 14:35:11;;;;;;;;;;;22.00;99.90;;;;;;5024402;28;19983;-71
2022/10/05 14:37:47;;;;;;;;;;;22.00;99.90;;;;;;5011073;28;20396;-72
2022/10/05 14:40:22;;;;;;;;;;;22.00;99.90;;;;;;5019366;28;19937;-71
2022/10/05 14:42:54;;;;;;;;;;;21.90;99.90;;;;;;5017895;28;20451;-71
2022/10/05 14:45:28;;;;;;;;;;;22.00;99.90;;;;;;5029603;28;19925;-71
2022/10/05 14:48:00;;;;;;;;;;;22.00;99.90;;;;;;5037873;28;19975;-73
2022/10/05 14:50:32;;;;;;;;;;;22.10;99.90;;;;;;5011230;28;19929;-72
2022/10/05 14:53:12;;;;;;;;;;;22.10;99.90;;;;;;5038354;28;19925;-72
2022/10/05 14:56:03;;;;;;;;;;;22.00;99.90;;;;;;5037763;28;19925;-72
2022/10/05 14:58:46;;;;;;;;;;;22.00;99.90;;;;;;5015970;28;19929;-71
2022/10/05 15:01:25;;;;;;;;;;;22.00;99.90;;;;;;5038756;28;19925;-72
2022/10/05 15:04:15;;;;;;;;;;;21.90;99.90;;;;;;5015791;28;19925;-72
2022/10/05 15:06:56;;;;;;;;;;;21.70;99.90;;;;;;5000930;28;19933;-71
2022/10/05 15:09:35;;;;;;;;;;;21.60;99.90;;;;;;5035398;28;19952;-72
2022/10/05 15:12:07;;;;;;;;;;;21.50;99.90;;;;;;5038547;28;19971;-71
2022/10/05 15:14:41;;;;;;;;;;;21.50;99.90;;;;;;5022602;28;19925;-72
2022/10/05 15:17:13;;;;;;;;;;;21.50;99.90;;;;;;5005021;28;19925;-72
2022/10/05 15:19:57;;;;;;;;;;;21.50;99.90;;;;;;5020868;28;19926;-71
2022/10/05 15:22:48;;;;;;;;;;;21.50;99.90;;;;;;5017577;28;19988;-71
2022/10/05 15:25:21;;;;;;;;;;;21.40;99.90;;;;;;5027158;28;20007;-72
2022/10/05 15:28:07;;;;;;;;;;;21.30;99.90;;;;;;5031308;28;19941;-72
2022/10/05 15:30:40;;;;;;;;;;;21.20;99.90;;;;;;5018316;28;19971;-72
2022/10/05 15:33:28;;;;;;;;;;;20.90;99.90;;;;;;5021058;28;20606;-71
2022/10/05 15:36:03;;;;;;;;;;;20.70;99.90;;;;;;5011589;28;19983;-71
2022/10/05 15:38:50;;;;;;;;;;;20.60;99.90;;;;;;5021343;28;20346;-72
2022/10/05 15:41:23;;;;;;;;;;;20.60;99.90;;;;;;5037807;28;19940;-71
2022/10/05 15:43:54;;;;;;;;;;;20.70;99.90;;;;;;5018656;28;19925;-72